sensor_id;sensor_type;location;lat;lon;timestamp;pressure;altitude;pressure_sealevel;temperature;humidity
18509;BME280;9383;50.928;12.116;2023-05-21T00:00:42;98966.34;;;13.60;94.68
18509;BME280;9383;50.928;12.116;2023-05-21T00:03:08;98969.13;;;13.59;94.47
18509;BME280;9383;50.928;12.116;2023-05-21T00:05:39;98964.84;;;13.55;94.24
18509;BME280;9383;50.928;12.116;2023-05-21T00:08:06;98959.66;;;13.52;94.35
18509;BME280;9383;50.928;12.116;2023-05-21T00:10:33;98958.94;;;13.48;94.08
18509;BME280;9383;50.928;12.116;2023-05-21T00:12:59;98954.72;;;13.44;94.20
18509;BME280;9383;50.928;12.116;2023-05-21T00:15:26;98949.56;;;13.39;94.03
18509;BME280;9383;50.928;12.116;2023-05-21T00:17:52;98951.63;;;13.32;93.68
18509;BME280;9383;50.928;12.116;2023-05-21T00:20:19;98946.72;;;13.23;93.76
18509;BME280;9383;50.928;12.116;2023-05-21T00:22:45;98949.00;;;13.12;94.15
18509;BME280;9383;50.928;12.116;2023-05-21T00:25:13;98946.66;;;13.05;94.25
18509;BME280;9383;50.928;12.116;2023-05-21T00:27:40;98938.19;;;12.95;94.27
18509;BME280;9383;50.928;12.116;2023-05-21T00:30:06;98945.53;;;12.90;94.79
18509;BME280;9383;50.928;12.116;2023-05-21T00:32:33;98934.28;;;12.84;94.76
18509;BME280;9383;50.928;12.116;2023-05-21T00:35:00;98936.31;;;12.78;94.69
18509;BME280;9383;50.928;12.116;2023-05-21T00:37:26;98935.78;;;12.70;94.61
18509;BME280;9383;50.928;12.116;2023-05-21T00:39:54;98938.69;;;12.64;94.74
18509;BME280;9383;50.928;12.116;2023-05-21T00:42:21;98936.16;;;12.61;94.73
18509;BME280;9383;50.928;12.116;2023-05-21T00:44:53;98942.56;;;12.57;94.64
18509;BME280;9383;50.928;12.116;2023-05-21T00:47:20;98938.31;;;12.52;94.92
18509;BME280;9383;50.928;12.116;2023-05-21T00:49:48;98934.91;;;12.49;94.89
18509;BME280;9383;50.928;12.116;2023-05-21T00:52:16;98931.53;;;12.45;94.81
18509;BME280;9383;50.928;12.116;2023-05-21T00:54:49;98930.78;;;12.42;94.79
18509;BME280;9383;50.928;12.116;2023-05-21T00:57:18;98929.19;;;12.37;94.65
18509;BME280;9383;50.928;12.116;2023-05-21T00:59:51;98936.44;;;12.34;94.80
18509;BME280;9383;50.928;12.116;2023-05-21T01:02:25;98935.69;;;12.30;94.71
18509;BME280;9383;50.928;12.116;2023-05-21T01:04:55;98929.72;;;12.25;94.82
18509;BME280;9383;50.928;12.116;2023-05-21T01:07:22;98929.84;;;12.22;95.33
18509;BME280;9383;50.928;12.116;2023-05-21T01:09:56;98926.31;;;12.21;95.20
18509;BME280;9383;50.928;12.116;2023-05-21T01:12:23;98914.88;;;12.19;95.15
18509;BME280;9383;50.928;12.116;2023-05-21T01:14:51;98916.75;;;12.17;95.28
18509;BME280;9383;50.928;12.116;2023-05-21T01:17:18;98927.38;;;12.17;95.57
18509;BME280;9383;50.928;12.116;2023-05-21T01:19:50;98921.28;;;12.15;95.87
18509;BME280;9383;50.928;12.116;2023-05-21T01:22:20;98919.53;;;12.14;96.33
18509;BME280;9383;50.928;12.116;2023-05-21T01:24:50;98927.50;;;12.14;96.86
18509;BME280;9383;50.928;12.116;2023-05-21T01:27:16;98926.59;;;12.15;97.04
18509;BME280;9383;50.928;12.116;2023-05-21T01:29:43;98919.53;;;12.14;97.94
18509;BME280;9383;50.928;12.116;2023-05-21T01:32:25;98917.69;;;12.16;98.42
18509;BME280;9383;50.928;12.116;2023-05-21T01:35:37;98912.38;;;12.16;98.96
18509;BME280;9383;50.928;12.116;2023-05-21T01:40:55;98903.47;;;12.17;98.85
18509;BME280;9383;50.928;12.116;2023-05-21T01:43:32;98905.31;;;12.15;99.08
18509;BME280;9383;50.928;12.116;2023-05-21T01:45:59;98900.13;;;12.12;98.94
18509;BME280;9383;50.928;12.116;2023-05-21T01:48:28;98896.81;;;12.07;99.09
18509;BME280;9383;50.928;12.116;2023-05-21T01:50:59;98894.19;;;12.05;99.55
18509;BME280;9383;50.928;12.116;2023-05-21T01:53:34;98895.91;;;12.06;99.50
18509;BME280;9383;50.928;12.116;2023-05-21T01:56:00;98891.63;;;12.04;99.65
18509;BME280;9383;50.928;12.116;2023-05-21T01:58:28;98889.97;;;12.00;99.67
18509;BME280;9383;50.928;12.116;2023-05-21T02:00:54;98892.75;;;11.96;99.32
18509;BME280;9383;50.928;12.116;2023-05-21T02:03:25;98895.69;;;11.90;99.55
18509;BME280;9383;50.928;12.116;2023-05-21T02:05:52;98890.47;;;11.87;99.45
18509;BME280;9383;50.928;12.116;2023-05-21T02:08:20;98885.31;;;11.84;99.51
18509;BME280;9383;50.928;12.116;2023-05-21T02:10:48;98892.47;;;11.82;99.66
18509;BME280;9383;50.928;12.116;2023-05-21T02:13:15;98892.59;;;11.79;100.00
18509;BME280;9383;50.928;12.116;2023-05-21T02:15:46;98889.16;;;11.77;99.75
18509;BME280;9383;50.928;12.116;2023-05-21T02:18:12;98894.56;;;11.74;99.79
18509;BME280;9383;50.928;12.116;2023-05-21T02:20:42;98883.22;;;11.70;99.73
18509;BME280;9383;50.928;12.116;2023-05-21T02:23:09;98890.44;;;11.66;100.00
18509;BME280;9383;50.928;12.116;2023-05-21T02:25:36;98886.13;;;11.64;100.00
18509;BME280;9383;50.928;12.116;2023-05-21T02:28:02;98890.69;;;11.60;100.00
18509;BME280;9383;50.928;12.116;2023-05-21T02:30:30;98885.50;;;11.57;100.00
18509;BME280;9383;50.928;12.116;2023-05-21T02:32:56;98886.56;;;11.53;100.00
18509;BME280;9383;50.928;12.116;2023-05-21T02:35:23;98897.28;;;11.50;100.00
18509;BME280;9383;50.928;12.116;2023-05-21T02:37:50;98888.59;;;11.46;100.00
18509;BME280;9383;50.928;12.116;2023-05-21T02:40:17;98876.28;;;11.44;100.00
18509;BME280;9383;50.928;12.116;2023-05-21T02:42:43;98892.34;;;11.40;100.00
18509;BME280;9383;50.928;12.116;2023-05-21T02:45:11;98881.09;;;11.34;100.00
18509;BME280;9383;50.928;12.116;2023-05-21T02:47:37;98881.28;;;11.29;100.00
18509;BME280;9383;50.928;12.116;2023-05-21T02:50:06;98880.47;;;11.27;100.00
18509;BME280;9383;50.928;12.116;2023-05-21T02:52:32;98881.50;;;11.23;100.00
18509;BME280;9383;50.928;12.116;2023-05-21T02:54:59;98882.50;;;11.20;100.00
18509;BME280;9383;50.928;12.116;2023-05-21T02:57:25;98880.84;;;11.18;100.00
18509;BME280;9383;50.928;12.116;2023-05-21T03:00:08;98875.66;;;11.15;100.00
18509;BME280;9383;50.928;12.116;2023-05-21T03:02:36;98881.94;;;11.12;100.00
18509;BME280;9383;50.928;12.116;2023-05-21T03:05:03;98889.00;;;11.11;100.00
18509;BME280;9383;50.928;12.116;2023-05-21T03:07:30;98884.75;;;11.07;100.00
18509;BME280;9383;50.928;12.116;2023-05-21T03:09:57;98882.16;;;11.06;100.00
18509;BME280;9383;50.928;12.116;2023-05-21T03:12:24;98884.88;;;11.04;100.00
18509;BME280;9383;50.928;12.116;2023-05-21T03:14:51;98883.16;;;11.03;100.00
18509;BME280;9383;50.928;12.116;2023-05-21T03:17:18;98886.66;;;11.04;100.00
18509;BME280;9383;50.928;12.116;2023-05-21T03:19:45;98887.47;;;11.06;100.00
18509;BME280;9383;50.928;12.116;2023-05-21T03:22:12;98885.63;;;11.08;100.00
18509;BME280;9383;50.928;12.116;2023-05-21T03:24:39;98884.59;;;11.12;100.00
18509;BME280;9383;50.928;12.116;2023-05-21T03:27:06;98886.25;;;11.15;100.00
18509;BME280;9383;50.928;12.116;2023-05-21T03:29:33;98887.91;;;11.17;100.00
18509;BME280;9383;50.928;12.116;2023-05-21T03:32:01;98892.25;;;11.20;100.00
18509;BME280;9383;50.928;12.116;2023-05-21T03:34:27;98890.41;;;11.22;100.00
18509;BME280;9383;50.928;12.116;2023-05-21T03:36:54;98885.09;;;11.22;100.00
18509;BME280;9383;50.928;12.116;2023-05-21T03:39:21;98889.47;;;11.23;100.00
18509;BME280;9383;50.928;12.116;2023-05-21T03:41:47;98884.16;;;11.23;100.00
18509;BME280;9383;50.928;12.116;2023-05-21T03:44:13;98883.22;;;11.24;100.00
18509;BME280;9383;50.928;12.116;2023-05-21T03:46:40;98886.72;;;11.26;100.00
18509;BME280;9383;50.928;12.116;2023-05-21T03:49:07;98883.06;;;11.29;100.00
18509;BME280;9383;50.928;12.116;2023-05-21T03:51:34;98889.13;;;11.32;100.00
18509;BME280;9383;50.928;12.116;2023-05-21T03:54:00;98877.53;;;11.35;100.00
18509;BME280;9383;50.928;12.116;2023-05-21T03:56:27;98888.91;;;11.38;100.00
18509;BME280;9383;50.928;12.116;2023-05-21T03:58:53;98888.78;;;11.42;100.00
18509;BME280;9383;50.928;12.116;2023-05-21T04:01:20;98882.41;;;11.46;100.00
18509;BME280;9383;50.928;12.116;2023-05-21T04:03:46;98889.31;;;11.50;100.00
18509;BME280;9383;50.928;12.116;2023-05-21T04:06:13;98890.00;;;11.55;100.00
18509;BME280;9383;50.928;12.116;2023-05-21T04:08:40;98896.91;;;11.59;100.00
18509;BME280;9383;50.928;12.116;2023-05-21T04:11:07;98895.88;;;11.63;100.00
18509;BME280;9383;50.928;12.116;2023-05-21T04:13:34;98900.97;;;11.68;100.00
18509;BME280;9383;50.928;12.116;2023-05-21T04:16:00;98896.41;;;11.72;100.00
18509;BME280;9383;50.928;12.116;2023-05-21T04:18:27;98893.63;;;11.75;100.00
18509;BME280;9383;50.928;12.116;2023-05-21T04:20:53;98896.25;;;11.76;100.00
18509;BME280;9383;50.928;12.116;2023-05-21T04:23:20;98901.41;;;11.79;100.00
18509;BME280;9383;50.928;12.116;2023-05-21T04:25:48;98899.50;;;11.83;100.00
18509;BME280;9383;50.928;12.116;2023-05-21T04:28:15;98904.59;;;11.89;100.00
18509;BME280;9383;50.928;12.116;2023-05-21T04:30:48;98903.47;;;11.95;100.00
18509;BME280;9383;50.928;12.116;2023-05-21T04:33:15;98896.06;;;12.03;100.00
18509;BME280;9383;50.928;12.116;2023-05-21T04:35:45;98898.38;;;12.11;100.00
18509;BME280;9383;50.928;12.116;2023-05-21T04:38:12;98900.72;;;12.19;100.00
18509;BME280;9383;50.928;12.116;2023-05-21T04:40:39;98904.13;;;12.22;100.00
18509;BME280;9383;50.928;12.116;2023-05-21T04:43:06;98908.19;;;12.31;100.00
18509;BME280;9383;50.928;12.116;2023-05-21T04:45:36;98892.91;;;12.36;100.00
18509;BME280;9383;50.928;12.116;2023-05-21T04:48:03;98903.22;;;12.44;100.00
18509;BME280;9383;50.928;12.116;2023-05-21T04:50:29;98900.28;;;12.50;100.00
18509;BME280;9383;50.928;12.116;2023-05-21T04:52:56;98903.59;;;12.56;100.00
18509;BME280;9383;50.928;12.116;2023-05-21T04:55:23;98897.16;;;12.61;100.00
18509;BME280;9383;50.928;12.116;2023-05-21T04:57:50;98896.03;;;12.67;100.00
18509;BME280;9383;50.928;12.116;2023-05-21T05:00:18;98897.53;;;12.73;100.00
18509;BME280;9383;50.928;12.116;2023-05-21T05:02:44;98900.78;;;12.79;100.00
18509;BME280;9383;50.928;12.116;2023-05-21T05:05:11;98898.78;;;12.85;100.00
18509;BME280;9383;50.928;12.116;2023-05-21T05:07:38;98891.47;;;12.90;100.00
18509;BME280;9383;50.928;12.116;2023-05-21T05:10:05;98894.78;;;12.95;100.00
18509;BME280;9383;50.928;12.116;2023-05-21T05:12:31;98886.50;;;13.01;100.00
18509;BME280;9383;50.928;12.116;2023-05-21T05:14:57;98895.16;;;13.06;100.00
18509;BME280;9383;50.928;12.116;2023-05-21T05:17:24;98894.00;;;13.12;100.00
18509;BME280;9383;50.928;12.116;2023-05-21T05:19:50;98890.19;;;13.18;100.00
18509;BME280;9383;50.928;12.116;2023-05-21T05:22:18;98889.09;;;13.22;100.00
18509;BME280;9383;50.928;12.116;2023-05-21T05:24:44;98888.00;;;13.26;100.00
18509;BME280;9383;50.928;12.116;2023-05-21T05:27:11;98893.06;;;13.32;100.00
18509;BME280;9383;50.928;12.116;2023-05-21T05:29:37;98891.03;;;13.37;100.00
18509;BME280;9383;50.928;12.116;2023-05-21T05:32:04;98892.53;;;13.43;100.00
18509;BME280;9383;50.928;12.116;2023-05-21T05:34:31;98893.16;;;13.50;100.00
18509;BME280;9383;50.928;12.116;2023-05-21T05:36:57;98907.13;;;13.55;100.00
18509;BME280;9383;50.928;12.116;2023-05-21T05:39:25;98901.50;;;13.61;100.00
18509;BME280;9383;50.928;12.116;2023-05-21T05:41:52;98899.47;;;13.67;100.00
18509;BME280;9383;50.928;12.116;2023-05-21T05:44:19;98891.97;;;13.75;100.00
18509;BME280;9383;50.928;12.116;2023-05-21T05:46:45;98892.41;;;13.85;100.00
18509;BME280;9383;50.928;12.116;2023-05-21T05:49:12;98894.44;;;13.97;100.00
18509;BME280;9383;50.928;12.116;2023-05-21T05:51:39;98892.97;;;14.09;100.00
18509;BME280;9383;50.928;12.116;2023-05-21T05:54:06;98899.41;;;14.23;100.00
18509;BME280;9383;50.928;12.116;2023-05-21T05:56:32;98899.56;;;14.37;100.00
18509;BME280;9383;50.928;12.116;2023-05-21T05:58:59;98886.47;;;14.50;100.00
18509;BME280;9383;50.928;12.116;2023-05-21T06:01:25;98884.94;;;14.62;100.00
18509;BME280;9383;50.928;12.116;2023-05-21T06:03:52;98893.28;;;14.73;100.00
18509;BME280;9383;50.928;12.116;2023-05-21T06:06:18;98886.50;;;14.84;100.00
18509;BME280;9383;50.928;12.116;2023-05-21T06:08:45;98898.41;;;14.94;100.00
18509;BME280;9383;50.928;12.116;2023-05-21T06:11:12;98900.56;;;15.03;100.00
18509;BME280;9383;50.928;12.116;2023-05-21T06:13:42;98893.72;;;15.15;100.00
18509;BME280;9383;50.928;12.116;2023-05-21T06:16:08;98886.81;;;15.27;100.00
18509;BME280;9383;50.928;12.116;2023-05-21T06:18:36;98892.19;;;15.43;100.00
18509;BME280;9383;50.928;12.116;2023-05-21T06:21:02;98886.06;;;15.57;100.00
18509;BME280;9383;50.928;12.116;2023-05-21T06:23:32;98875.34;;;15.73;100.00
18509;BME280;9383;50.928;12.116;2023-05-21T06:26:00;98882.34;;;15.92;100.00
18509;BME280;9383;50.928;12.116;2023-05-21T06:28:27;98883.16;;;16.09;100.00
18509;BME280;9383;50.928;12.116;2023-05-21T06:30:53;98821.81;;;15.91;100.00
18509;BME280;9383;50.928;12.116;2023-05-21T06:33:20;98871.22;;;16.45;100.00
18509;BME280;9383;50.928;12.116;2023-05-21T06:35:46;98880.63;;;16.67;100.00
18509;BME280;9383;50.928;12.116;2023-05-21T06:38:13;98877.47;;;16.89;100.00
18509;BME280;9383;50.928;12.116;2023-05-21T06:40:39;98881.72;;;17.08;100.00
18509;BME280;9383;50.928;12.116;2023-05-21T06:43:06;98886.59;;;17.30;100.00
18509;BME280;9383;50.928;12.116;2023-05-21T06:45:32;98885.09;;;17.53;100.00
18509;BME280;9383;50.928;12.116;2023-05-21T06:47:59;98884.66;;;17.74;99.69
18509;BME280;9383;50.928;12.116;2023-05-21T06:50:26;98879.78;;;17.94;98.46
18509;BME280;9383;50.928;12.116;2023-05-21T06:52:52;98883.00;;;18.13;97.90
18509;BME280;9383;50.928;12.116;2023-05-21T06:55:19;98868.13;;;18.35;96.05
18509;BME280;9383;50.928;12.116;2023-05-21T06:57:45;98869.22;;;18.59;94.57
18509;BME280;9383;50.928;12.116;2023-05-21T07:00:12;98878.34;;;18.82;94.08
18509;BME280;9383;50.928;12.116;2023-05-21T07:02:39;98874.41;;;19.01;90.55
18509;BME280;9383;50.928;12.116;2023-05-21T07:05:05;98868.56;;;19.20;90.89
18509;BME280;9383;50.928;12.116;2023-05-21T07:07:32;98868.09;;;19.39;89.77
18509;BME280;9383;50.928;12.116;2023-05-21T07:10:00;98868.44;;;19.59;88.55
18509;BME280;9383;50.928;12.116;2023-05-21T07:12:26;98873.31;;;19.78;88.52
18509;BME280;9383;50.928;12.116;2023-05-21T07:14:53;98862.94;;;19.98;87.66
18509;BME280;9383;50.928;12.116;2023-05-21T07:17:19;98862.63;;;20.14;85.78
18509;BME280;9383;50.928;12.116;2023-05-21T07:19:46;98867.91;;;20.27;83.45
18509;BME280;9383;50.928;12.116;2023-05-21T07:22:12;98864.06;;;20.42;83.32
18509;BME280;9383;50.928;12.116;2023-05-21T07:24:39;98853.66;;;20.60;83.09
18509;BME280;9383;50.928;12.116;2023-05-21T07:27:05;98854.19;;;20.77;81.05
18509;BME280;9383;50.928;12.116;2023-05-21T07:29:35;98851.41;;;20.90;80.36
18509;BME280;9383;50.928;12.116;2023-05-21T07:32:02;98850.56;;;21.01;79.66
18509;BME280;9383;50.928;12.116;2023-05-21T07:34:28;98848.97;;;21.10;79.10
18509;BME280;9383;50.928;12.116;2023-05-21T07:36:54;98850.94;;;21.19;78.17
18509;BME280;9383;50.928;12.116;2023-05-21T07:39:21;98853.72;;;21.29;78.03
18509;BME280;9383;50.928;12.116;2023-05-21T07:41:47;98854.81;;;21.38;77.87
18509;BME280;9383;50.928;12.116;2023-05-21T07:44:14;98847.78;;;21.46;77.83
18509;BME280;9383;50.928;12.116;2023-05-21T07:46:40;98847.56;;;21.49;75.95
18509;BME280;9383;50.928;12.116;2023-05-21T07:49:07;98847.56;;;21.49;75.53
18509;BME280;9383;50.928;12.116;2023-05-21T07:51:35;98841.91;;;21.53;75.40
18509;BME280;9383;50.928;12.116;2023-05-21T07:54:02;98852.31;;;21.57;75.65
18509;BME280;9383;50.928;12.116;2023-05-21T07:56:28;98841.75;;;21.65;75.31
18509;BME280;9383;50.928;12.116;2023-05-21T07:58:55;98834.28;;;21.69;75.41
18509;BME280;9383;50.928;12.116;2023-05-21T08:01:22;98834.38;;;21.79;74.53
18509;BME280;9383;50.928;12.116;2023-05-21T08:03:49;98828.34;;;21.87;73.18
18509;BME280;9383;50.928;12.116;2023-05-21T08:06:15;98836.84;;;22.03;72.88
18509;BME280;9383;50.928;12.116;2023-05-21T08:08:42;98828.88;;;22.23;72.95
18509;BME280;9383;50.928;12.116;2023-05-21T08:11:09;98819.94;;;22.44;72.67
18509;BME280;9383;50.928;12.116;2023-05-21T08:13:35;98820.09;;;22.64;71.67
18509;BME280;9383;50.928;12.116;2023-05-21T08:16:02;98818.53;;;22.71;70.24
18509;BME280;9383;50.928;12.116;2023-05-21T08:18:28;98824.19;;;22.89;71.02
18509;BME280;9383;50.928;12.116;2023-05-21T08:20:55;98824.09;;;23.10;70.80
18509;BME280;9383;50.928;12.116;2023-05-21T08:23:21;98825.91;;;23.31;70.96
18509;BME280;9383;50.928;12.116;2023-05-21T08:25:51;98826.53;;;23.44;67.41
18509;BME280;9383;50.928;12.116;2023-05-21T08:28:20;98821.53;;;23.50;67.34
18509;BME280;9383;50.928;12.116;2023-05-21T08:30:46;98828.81;;;23.59;67.04
18509;BME280;9383;50.928;12.116;2023-05-21T08:33:13;98816.75;;;23.73;67.10
18509;BME280;9383;50.928;12.116;2023-05-21T08:35:40;98823.97;;;23.82;67.08
18509;BME280;9383;50.928;12.116;2023-05-21T08:38:06;98821.72;;;23.97;66.52
18509;BME280;9383;50.928;12.116;2023-05-21T08:40:33;98824.47;;;24.17;66.61
18509;BME280;9383;50.928;12.116;2023-05-21T08:43:00;98818.28;;;24.35;65.96
18509;BME280;9383;50.928;12.116;2023-05-21T08:45:32;98817.41;;;24.44;64.80
18509;BME280;9383;50.928;12.116;2023-05-21T08:48:02;98818.78;;;24.58;65.57
18509;BME280;9383;50.928;12.116;2023-05-21T08:50:30;98820.06;;;24.73;63.48
18509;BME280;9383;50.928;12.116;2023-05-21T08:52:57;98815.00;;;24.89;63.43
18509;BME280;9383;50.928;12.116;2023-05-21T08:55:26;98815.53;;;25.02;63.40
18509;BME280;9383;50.928;12.116;2023-05-21T08:57:53;98814.31;;;25.14;63.43
18509;BME280;9383;50.928;12.116;2023-05-21T09:00:20;98815.28;;;25.23;61.64
18509;BME280;9383;50.928;12.116;2023-05-21T09:02:47;98818.53;;;25.27;61.61
18509;BME280;9383;50.928;12.116;2023-05-21T09:05:14;98811.41;;;25.26;60.25
18509;BME280;9383;50.928;12.116;2023-05-21T09:10:36;98814.81;;;25.00;59.15
18509;BME280;9383;50.928;12.116;2023-05-21T09:13:04;98806.13;;;24.96;60.46
18509;BME280;9383;50.928;12.116;2023-05-21T09:15:33;98815.53;;;25.02;61.05
18509;BME280;9383;50.928;12.116;2023-05-21T09:17:59;98807.63;;;25.09;60.40
18509;BME280;9383;50.928;12.116;2023-05-21T09:20:27;98800.63;;;25.16;60.84
18509;BME280;9383;50.928;12.116;2023-05-21T09:22:54;98805.69;;;25.01;59.30
18509;BME280;9383;50.928;12.116;2023-05-21T09:25:23;98808.31;;;24.83;60.59
18509;BME280;9383;50.928;12.116;2023-05-21T09:27:51;98806.34;;;24.85;61.39
18509;BME280;9383;50.928;12.116;2023-05-21T09:30:18;98811.84;;;24.93;60.95
18509;BME280;9383;50.928;12.116;2023-05-21T09:32:45;98808.69;;;24.98;62.01
18509;BME280;9383;50.928;12.116;2023-05-21T09:35:17;98805.72;;;25.19;62.61
18509;BME280;9383;50.928;12.116;2023-05-21T09:37:46;98798.44;;;25.48;63.27
18509;BME280;9383;50.928;12.116;2023-05-21T09:40:20;98800.56;;;25.72;63.23
18509;BME280;9383;50.928;12.116;2023-05-21T09:42:52;98798.56;;;25.92;60.66
18509;BME280;9383;50.928;12.116;2023-05-21T09:45:20;98792.56;;;26.07;59.77
18509;BME280;9383;50.928;12.116;2023-05-21T09:47:48;98793.72;;;26.22;57.69
18509;BME280;9383;50.928;12.116;2023-05-21T09:50:19;98796.19;;;26.34;54.62
18509;BME280;9383;50.928;12.116;2023-05-21T09:52:47;98791.03;;;26.49;51.48
18509;BME280;9383;50.928;12.116;2023-05-21T09:55:25;98787.03;;;26.61;49.25
18509;BME280;9383;50.928;12.116;2023-05-21T09:57:52;98790.78;;;26.68;48.94
18509;BME280;9383;50.928;12.116;2023-05-21T10:00:24;98796.44;;;26.75;43.94
18509;BME280;9383;50.928;12.116;2023-05-21T10:02:57;98775.75;;;26.82;42.97
18509;BME280;9383;50.928;12.116;2023-05-21T10:05:27;98788.66;;;26.80;40.59
18509;BME280;9383;50.928;12.116;2023-05-21T10:08:00;98779.28;;;26.75;40.86
18509;BME280;9383;50.928;12.116;2023-05-21T10:10:28;98775.88;;;26.81;42.04
18509;BME280;9383;50.928;12.116;2023-05-21T10:13:03;98772.34;;;26.80;40.81
18509;BME280;9383;50.928;12.116;2023-05-21T10:15:37;98777.78;;;26.80;40.30
18509;BME280;9383;50.928;12.116;2023-05-21T10:18:09;98773.16;;;26.81;40.93
18509;BME280;9383;50.928;12.116;2023-05-21T10:20:38;98768.91;;;26.78;41.08
18509;BME280;9383;50.928;12.116;2023-05-21T10:23:05;98771.13;;;26.75;39.14
18509;BME280;9383;50.928;12.116;2023-05-21T10:25:32;98782.16;;;26.73;39.87
18509;BME280;9383;50.928;12.116;2023-05-21T10:27:58;98777.38;;;26.75;41.60
18509;BME280;9383;50.928;12.116;2023-05-21T10:30:25;98766.66;;;26.65;38.12
18509;BME280;9383;50.928;12.116;2023-05-21T10:32:54;98779.44;;;26.73;39.47
18509;BME280;9383;50.928;12.116;2023-05-21T10:35:22;98767.53;;;26.74;38.97
18509;BME280;9383;50.928;12.116;2023-05-21T10:37:50;98715.41;;;26.52;39.79
18509;BME280;9383;50.928;12.116;2023-05-21T10:40:18;98772.38;;;26.89;39.33
18509;BME280;9383;50.928;12.116;2023-05-21T10:43:30;98771.06;;;26.93;38.25
18509;BME280;9383;50.928;12.116;2023-05-21T10:51:24;98767.00;;;26.97;41.61
18509;BME280;9383;50.928;12.116;2023-05-21T10:54:07;98763.28;;;27.15;43.09
18509;BME280;9383;50.928;12.116;2023-05-21T10:57:23;98757.22;;;27.21;39.99
18509;BME280;9383;50.928;12.116;2023-05-21T10:59:57;98753.44;;;27.05;39.38
18509;BME280;9383;50.928;12.116;2023-05-21T11:02:25;98759.69;;;27.06;40.22
18509;BME280;9383;50.928;12.116;2023-05-21T11:04:59;98749.13;;;26.94;41.56
18509;BME280;9383;50.928;12.116;2023-05-21T11:07:57;98760.19;;;27.01;40.84
18509;BME280;9383;50.928;12.116;2023-05-21T11:10:40;98755.44;;;27.03;41.52
18509;BME280;9383;50.928;12.116;2023-05-21T11:13:16;98754.59;;;27.03;40.91
18509;BME280;9383;50.928;12.116;2023-05-21T11:21:13;98751.31;;;26.91;38.52
18509;BME280;9383;50.928;12.116;2023-05-21T11:23:52;98757.38;;;26.85;38.12
18509;BME280;9383;50.928;12.116;2023-05-21T11:26:26;98754.50;;;26.86;38.24
18509;BME280;9383;50.928;12.116;2023-05-21T11:31:30;98747.94;;;26.97;38.54
18509;BME280;9383;50.928;12.116;2023-05-21T11:34:14;98744.50;;;26.87;36.28
18509;BME280;9383;50.928;12.116;2023-05-21T11:36:48;98749.66;;;26.98;38.36
18509;BME280;9383;50.928;12.116;2023-05-21T11:39:18;98746.59;;;27.01;36.88
18509;BME280;9383;50.928;12.116;2023-05-21T11:41:52;98736.72;;;27.00;36.44
18509;BME280;9383;50.928;12.116;2023-05-21T11:44:46;98744.75;;;27.02;37.80
18509;BME280;9383;50.928;12.116;2023-05-21T11:47:14;98752.72;;;27.03;36.25
18509;BME280;9383;50.928;12.116;2023-05-21T11:49:41;98751.19;;;27.01;36.11
18509;BME280;9383;50.928;12.116;2023-05-21T11:52:09;98744.34;;;26.96;36.41
18509;BME280;9383;50.928;12.116;2023-05-21T11:54:43;98738.41;;;26.93;36.52
18509;BME280;9383;50.928;12.116;2023-05-21T11:57:12;98738.03;;;26.88;36.19
18509;BME280;9383;50.928;12.116;2023-05-21T11:59:41;98736.53;;;26.93;38.06
18509;BME280;9383;50.928;12.116;2023-05-21T12:02:08;98752.19;;;26.91;36.93
18509;BME280;9383;50.928;12.116;2023-05-21T12:04:36;98734.97;;;26.91;36.37
18509;BME280;9383;50.928;12.116;2023-05-21T12:07:06;98745.44;;;26.77;35.13
18509;BME280;9383;50.928;12.116;2023-05-21T12:09:43;98738.25;;;26.60;35.60
18509;BME280;9383;50.928;12.116;2023-05-21T12:12:13;98734.66;;;26.59;36.01
18509;BME280;9383;50.928;12.116;2023-05-21T12:14:42;98723.97;;;26.58;35.87
18509;BME280;9383;50.928;12.116;2023-05-21T12:17:08;98729.53;;;26.56;35.85
18509;BME280;9383;50.928;12.116;2023-05-21T12:19:36;98738.03;;;26.53;35.79
18509;BME280;9383;50.928;12.116;2023-05-21T12:22:04;98742.59;;;26.44;35.43
18509;BME280;9383;50.928;12.116;2023-05-21T12:24:31;98727.78;;;26.38;36.10
18509;BME280;9383;50.928;12.116;2023-05-21T12:27:02;98733.88;;;26.40;37.47
18509;BME280;9383;50.928;12.116;2023-05-21T12:29:36;98727.59;;;26.40;35.94
18509;BME280;9383;50.928;12.116;2023-05-21T12:32:07;98724.91;;;26.48;37.53
18509;BME280;9383;50.928;12.116;2023-05-21T12:34:48;98722.56;;;26.53;38.03
18509;BME280;9383;50.928;12.116;2023-05-21T12:37:18;98746.72;;;26.57;37.94
18509;BME280;9383;50.928;12.116;2023-05-21T12:39:46;98729.88;;;26.53;35.48
18509;BME280;9383;50.928;12.116;2023-05-21T12:42:14;98720.66;;;26.46;35.99
18509;BME280;9383;50.928;12.116;2023-05-21T12:44:47;98726.78;;;26.48;37.11
18509;BME280;9383;50.928;12.116;2023-05-21T12:47:14;98725.78;;;26.49;36.66
18509;BME280;9383;50.928;12.116;2023-05-21T12:49:42;98727.50;;;26.50;36.37
18509;BME280;9383;50.928;12.116;2023-05-21T12:52:17;98716.63;;;26.50;36.87
18509;BME280;9383;50.928;12.116;2023-05-21T12:54:48;98719.81;;;26.45;35.75
18509;BME280;9383;50.928;12.116;2023-05-21T12:57:16;98716.78;;;26.48;35.59
18509;BME280;9383;50.928;12.116;2023-05-21T13:00:02;98715.41;;;26.52;36.75
18509;BME280;9383;50.928;12.116;2023-05-21T13:02:33;98714.78;;;26.59;35.86
18509;BME280;9383;50.928;12.116;2023-05-21T13:05:02;98717.16;;;26.62;35.72
18509;BME280;9383;50.928;12.116;2023-05-21T13:07:31;98717.03;;;26.63;35.32
18509;BME280;9383;50.928;12.116;2023-05-21T13:09:58;98712.56;;;26.54;34.36
18509;BME280;9383;50.928;12.116;2023-05-21T13:12:27;98709.97;;;26.52;35.89
18509;BME280;9383;50.928;12.116;2023-05-21T13:14:56;98701.81;;;26.52;37.11
18509;BME280;9383;50.928;12.116;2023-05-21T13:17:23;98696.09;;;26.56;37.96
18509;BME280;9383;50.928;12.116;2023-05-21T13:20:17;98691.66;;;26.54;36.62
18509;BME280;9383;50.928;12.116;2023-05-21T13:22:50;98698.63;;;26.57;37.25
18509;BME280;9383;50.928;12.116;2023-05-21T13:25:24;98659.25;;;26.26;36.65